createdAt,value
2016-03-04T00:00:07.476Z,-12.23
2016-03-04T00:00:21.697Z,-12.22
2016-03-04T00:00:35.932Z,-12.21
2016-03-04T00:00:49.963Z,-12.22
2016-03-04T00:01:04.088Z,-12.19
2016-03-04T00:01:18.278Z,-12.22
2016-03-04T00:01:32.544Z,-12.19
2016-03-04T00:01:46.653Z,-12.29
2016-03-04T00:02:00.732Z,-12.22
2016-03-04T00:02:14.638Z,-12.16
2016-03-04T00:02:28.735Z,-12.22
2016-03-04T00:02:56.813Z,-12.23
2016-03-04T00:03:10.953Z,-12.27
2016-03-04T00:03:25.003Z,-12.22
2016-03-04T00:03:39.159Z,-12.22
2016-03-04T00:03:53.081Z,-12.22
2016-03-04T00:04:07.144Z,-12.27
2016-03-04T00:04:21.255Z,-12.22
2016-03-04T00:04:35.333Z,-12.3
2016-03-04T00:04:49.771Z,-12.22
2016-03-04T00:05:03.990Z,-12.25
2016-03-04T00:05:18.054Z,-12.25
2016-03-04T00:05:32.054Z,-12.22
2016-03-04T00:05:46.085Z,-12.29
2016-03-04T00:05:59.476Z,-12.29
2016-03-04T00:06:13.554Z,-12.19
2016-03-04T00:06:27.870Z,-12.25
2016-03-04T00:06:41.948Z,-12.23
2016-03-04T00:06:55.870Z,-12.22
2016-03-04T00:07:09.979Z,-12.29
2016-03-04T00:07:24.232Z,-12.22
2016-03-04T00:07:38.216Z,-12.22
2016-03-04T00:07:52.310Z,-12.29
2016-03-04T00:08:06.373Z,-12.21
2016-03-04T00:08:20.469Z,-12.25
2016-03-04T00:08:34.532Z,-12.21
2016-03-04T00:08:48.735Z,-12.22
2016-03-04T00:09:03.016Z,-12.27
2016-03-04T00:09:17.254Z,-12.16
2016-03-04T00:09:31.457Z,-12.16
2016-03-04T00:09:45.582Z,-12.22
2016-03-04T00:09:59.597Z,-12.25
2016-03-04T00:10:13.222Z,-12.21
2016-03-04T00:10:27.350Z,-12.27
2016-03-04T00:10:41.382Z,-12.22
2016-03-04T00:10:55.397Z,-12.13
2016-03-04T00:11:09.663Z,-12.22
2016-03-04T00:11:23.915Z,-12.22
2016-03-04T00:11:37.993Z,-12.15
2016-03-04T00:11:52.321Z,-12.19
2016-03-04T00:12:06.524Z,-12.25
2016-03-04T00:12:20.183Z,-12.21
2016-03-04T00:12:34.355Z,-12.25
2016-03-04T00:12:48.683Z,-12.22
2016-03-04T00:13:02.668Z,-12.29
2016-03-04T00:13:16.137Z,-12.23
2016-03-04T00:13:30.295Z,-12.21
2016-03-04T00:13:44.467Z,-12.23
2016-03-04T00:13:58.295Z,-12.15
2016-03-04T00:14:12.623Z,-12.29
2016-03-04T00:14:26.782Z,-12.19
2016-03-04T00:14:40.892Z,-12.25
2016-03-04T00:14:54.907Z,-12.32
2016-03-04T00:15:09.017Z,-12.21
2016-03-04T00:15:23.004Z,-12.27
2016-03-04T00:15:37.066Z,-12.22
2016-03-04T00:15:51.270Z,-12.19
2016-03-04T00:16:05.207Z,-12.19
2016-03-04T00:16:19.803Z,-12.25
2016-03-04T00:16:33.865Z,-12.23
2016-03-04T00:16:48.131Z,-12.23
2016-03-04T00:17:02.209Z,-12.29
2016-03-04T00:17:16.368Z,-12.22
2016-03-04T00:17:30.415Z,-12.23
2016-03-04T00:17:44.493Z,-12.21
2016-03-04T00:17:58.462Z,-12.3
2016-03-04T00:18:12.587Z,-12.25
2016-03-04T00:18:26.543Z,-12.16
2016-03-04T00:18:40.731Z,-12.22
2016-03-04T00:18:54.887Z,-12.18
2016-03-04T00:19:09.012Z,-12.22
2016-03-04T00:19:23.076Z,-12.16
2016-03-04T00:19:37.514Z,-12.25
2016-03-04T00:19:51.592Z,-12.15
2016-03-04T00:20:06.123Z,-12.22
2016-03-04T00:20:20.423Z,-12.22
2016-03-04T00:20:34.611Z,-12.3
2016-03-04T00:20:49.392Z,-12.25
2016-03-04T00:21:04.345Z,-12.22
2016-03-04T00:21:19.426Z,-12.22
2016-03-04T00:21:34.364Z,-12.29
2016-03-04T00:21:49.239Z,-12.18
2016-03-04T00:22:03.926Z,-12.32
2016-03-04T00:22:18.303Z,-12.23
2016-03-04T00:22:33.209Z,-12.19
2016-03-04T00:22:48.334Z,-12.3
2016-03-04T00:23:03.288Z,-12.22
2016-03-04T00:23:18.181Z,-12.22
2016-03-04T00:23:32.681Z,-12.23
2016-03-04T00:23:46.603Z,-12.29
2016-03-04T00:24:00.712Z,-12.22
2016-03-04T00:24:15.666Z,-12.27
2016-03-04T00:24:30.231Z,-12.22
2016-03-04T00:24:45.059Z,-12.19
2016-03-04T00:24:59.778Z,-12.22
2016-03-04T00:25:14.950Z,-12.27
2016-03-04T00:25:29.843Z,-12.22
2016-03-04T00:25:44.562Z,-12.27
2016-03-04T00:25:59.109Z,-12.25
2016-03-04T00:26:14.109Z,-12.21
2016-03-04T00:26:28.987Z,-12.27
2016-03-04T00:26:42.128Z,-12.23
2016-03-04T00:26:57.050Z,-12.25
2016-03-04T00:27:12.128Z,-12.25
2016-03-04T00:27:26.176Z,-12.27
2016-03-04T00:27:40.785Z,-12.22
2016-03-04T00:27:55.785Z,-12.23
2016-03-04T00:28:13.894Z,-12.22
2016-03-04T00:28:28.773Z,-12.32
2016-03-04T00:28:43.555Z,-12.25
2016-03-04T00:28:57.570Z,-12.18
2016-03-04T00:29:12.789Z,-12.25
2016-03-04T00:29:27.494Z,-12.25
2016-03-04T00:29:42.244Z,-12.22
2016-03-04T00:29:57.025Z,-12.22
2016-03-04T00:30:11.697Z,-12.19
2016-03-04T00:30:26.388Z,-12.21
2016-03-04T00:30:40.497Z,-12.16
2016-03-04T00:30:54.955Z,-12.19
2016-03-04T00:31:09.518Z,-12.19
2016-03-04T00:31:23.754Z,-12.18
2016-03-04T00:31:38.488Z,-12.23
2016-03-04T00:31:53.270Z,-12.21
2016-03-04T00:32:07.618Z,-12.21
2016-03-04T00:32:21.856Z,-12.18
2016-03-04T00:32:36.762Z,-12.23
2016-03-04T00:32:54.481Z,-12.21
2016-03-04T00:33:09.152Z,-12.22
2016-03-04T00:33:23.952Z,-12.22
2016-03-04T00:33:38.780Z,-12.16
2016-03-04T00:33:53.968Z,-12.19
2016-03-04T00:34:08.780Z,-12.21
2016-03-04T00:34:23.674Z,-12.18
2016-03-04T00:34:38.252Z,-12.22
2016-03-04T00:34:52.987Z,-12.23
2016-03-04T00:35:07.955Z,-12.23
2016-03-04T00:35:22.786Z,-12.21
2016-03-04T00:35:37.005Z,-12.21
2016-03-04T00:35:51.521Z,-12.18
2016-03-04T00:36:05.896Z,-12.21
2016-03-04T00:36:20.648Z,-12.19
2016-03-04T00:36:34.992Z,-12.25
2016-03-04T00:36:49.960Z,-12.21
2016-03-04T00:37:05.351Z,-12.19
2016-03-04T00:37:20.306Z,-12.21
2016-03-04T00:37:35.228Z,-12.11
2016-03-04T00:37:49.822Z,-12.21
2016-03-04T00:38:04.650Z,-12.18
2016-03-04T00:38:19.637Z,-12.23
2016-03-04T00:38:34.215Z,-12.23
2016-03-04T00:38:49.293Z,-12.18
2016-03-04T00:39:03.887Z,-12.22
2016-03-04T00:39:18.751Z,-12.22
2016-03-04T00:39:33.516Z,-12.21
2016-03-04T00:39:48.688Z,-12.16
2016-03-04T00:40:03.547Z,-12.21
2016-03-04T00:40:18.393Z,-12.19
2016-03-04T00:40:33.159Z,-12.16
2016-03-04T00:40:47.893Z,-12.27
2016-03-04T00:41:02.768Z,-12.27
2016-03-04T00:41:17.346Z,-12.22
2016-03-04T00:41:32.177Z,-12.16
2016-03-04T00:41:47.084Z,-12.23
2016-03-04T00:42:01.818Z,-12.23
2016-03-04T00:42:16.506Z,-12.27
2016-03-04T00:42:31.492Z,-12.25
2016-03-04T00:42:46.195Z,-12.22
2016-03-04T00:43:01.398Z,-12.29
2016-03-04T00:43:16.398Z,-12.34
2016-03-04T00:43:30.901Z,-12.3
2016-03-04T00:43:46.073Z,-12.25
2016-03-04T00:44:01.229Z,-12.37
2016-03-04T00:44:15.901Z,-12.25
2016-03-04T00:44:30.794Z,-12.35
2016-03-04T00:44:45.700Z,-12.4
2016-03-04T00:45:00.341Z,-12.3
2016-03-04T00:45:15.778Z,-12.43
2016-03-04T00:45:30.734Z,-12.43
2016-03-04T00:45:44.812Z,-12.43
2016-03-04T00:45:59.828Z,-12.38
2016-03-04T00:46:14.625Z,-12.44
2016-03-04T00:46:29.675Z,-12.48
2016-03-04T00:46:44.628Z,-12.35
2016-03-04T00:46:59.144Z,-12.44
2016-03-04T00:47:28.053Z,-12.41
2016-03-04T00:47:42.568Z,-12.38
2016-03-04T00:47:57.428Z,-12.45
2016-03-04T00:48:12.131Z,-12.44
2016-03-04T00:48:26.806Z,-12.47
2016-03-04T00:48:41.540Z,-12.55
2016-03-04T00:48:56.337Z,-12.45
2016-03-04T00:49:11.462Z,-12.55
2016-03-04T00:49:26.777Z,-12.52
2016-03-04T00:49:41.464Z,-12.5
2016-03-04T00:49:56.042Z,-12.43
2016-03-04T00:50:11.183Z,-12.56
2016-03-04T00:50:25.842Z,-12.52
2016-03-04T00:50:40.623Z,-12.55
2016-03-04T00:50:55.436Z,-12.55
2016-03-04T00:51:10.311Z,-12.58
2016-03-04T00:51:25.532Z,-12.54
2016-03-04T00:51:40.438Z,-12.5
2016-03-04T00:51:55.078Z,-12.62
2016-03-04T00:52:10.047Z,-12.58
2016-03-04T00:52:25.332Z,-12.72
2016-03-04T00:52:40.051Z,-12.64
2016-03-04T00:52:55.098Z,-12.72
2016-03-04T00:53:09.989Z,-12.74
2016-03-04T00:53:24.803Z,-12.59
2016-03-04T00:53:39.569Z,-12.73
2016-03-04T00:53:53.647Z,-12.74
2016-03-04T00:54:22.494Z,-12.74
2016-03-04T00:54:37.541Z,-12.74
2016-03-04T00:54:55.462Z,-12.76
2016-03-04T00:55:10.650Z,-12.86
2016-03-04T00:55:34.419Z,-12.72
2016-03-04T00:55:49.450Z,-12.76
2016-03-04T00:56:03.840Z,-12.86
2016-03-04T00:56:17.809Z,-12.83
2016-03-04T00:56:32.656Z,-12.73
2016-03-04T00:56:47.390Z,-12.8
2016-03-04T00:57:02.297Z,-12.86
2016-03-04T00:57:17.093Z,-12.84
2016-03-04T00:57:32.017Z,-12.91
2016-03-04T00:57:46.877Z,-12.82
2016-03-04T00:58:01.892Z,-12.95
2016-03-04T00:58:16.658Z,-12.82
2016-03-04T00:58:32.036Z,-12.84
2016-03-04T00:58:46.911Z,-12.91
2016-03-04T00:59:00.927Z,-12.97
2016-03-04T00:59:15.989Z,-12.84
2016-03-04T00:59:30.976Z,-12.98
2016-03-04T00:59:46.039Z,-12.94
2016-03-04T01:00:00.805Z,-12.95
2016-03-04T01:00:16.039Z,-12.94
2016-03-04T01:00:31.058Z,-13.01
2016-03-04T01:00:46.120Z,-13.04
2016-03-04T01:01:14.183Z,-12.98
2016-03-04T01:01:29.341Z,-12.97
2016-03-04T01:01:42.997Z,-13
2016-03-04T01:01:57.060Z,-12.98
2016-03-04T01:02:10.888Z,-12.98
2016-03-04T01:02:25.750Z,-13.01
2016-03-04T01:02:40.594Z,-13.05
2016-03-04T01:02:55.969Z,-13.07
2016-03-04T01:03:09.906Z,-13.04
2016-03-04T01:03:24.644Z,-13.04
2016-03-04T01:03:39.441Z,-13.05
2016-03-04T01:03:54.534Z,-13.11
2016-03-04T01:04:08.816Z,-13.01
2016-03-04T01:04:23.786Z,-13
2016-03-04T01:04:39.005Z,-13.07
2016-03-04T01:04:53.661Z,-13.07
2016-03-04T01:05:08.333Z,-13.03
2016-03-04T01:05:23.181Z,-13.01
2016-03-04T01:05:37.900Z,-13
2016-03-04T01:05:52.931Z,-13.03
2016-03-04T01:06:07.775Z,-13.01
2016-03-04T01:06:22.449Z,-13.11
2016-03-04T01:06:37.199Z,-13
2016-03-04T01:06:51.995Z,-13.03
2016-03-04T01:07:05.949Z,-13.09
2016-03-04T01:07:20.920Z,-13.04
2016-03-04T01:07:35.483Z,-13.09
2016-03-04T01:07:50.467Z,-13.03
2016-03-04T01:08:19.188Z,-13.07
2016-03-04T01:08:34.266Z,-13.03
2016-03-04T01:08:48.938Z,-13.05
2016-03-04T01:09:03.922Z,-13.07
2016-03-04T01:09:18.719Z,-13.07
2016-03-04T01:09:33.285Z,-13.05
2016-03-04T01:09:48.097Z,-13.14
2016-03-04T01:10:02.707Z,-13.11
2016-03-04T01:10:17.378Z,-13.01
2016-03-04T01:10:32.272Z,-13.05
2016-03-04T01:10:47.131Z,-13.01
2016-03-04T01:11:01.928Z,-13.12
2016-03-04T01:11:16.663Z,-13.04
2016-03-04T01:11:31.275Z,-13.12
2016-03-04T01:11:46.197Z,-13.09
2016-03-04T01:12:00.853Z,-13.14
2016-03-04T01:12:15.619Z,-13.07
2016-03-04T01:12:30.386Z,-13.22
2016-03-04T01:12:45.230Z,-13.18
2016-03-04T01:13:00.636Z,-13.18
2016-03-04T01:13:15.808Z,-13.16
2016-03-04T01:13:30.796Z,-13.19
2016-03-04T01:13:45.421Z,-13.21
2016-03-04T01:14:00.202Z,-13.18
2016-03-04T01:14:15.218Z,-13.15
2016-03-04T01:14:30.127Z,-13.21
2016-03-04T01:14:44.721Z,-13.19
2016-03-04T01:14:59.330Z,-13.19
2016-03-04T01:15:13.846Z,-13.19
2016-03-04T01:15:29.144Z,-13.12
2016-03-04T01:15:43.660Z,-13.22
2016-03-04T01:15:58.269Z,-13.22
2016-03-04T01:16:12.957Z,-13.22
2016-03-04T01:16:27.741Z,-13.25
2016-03-04T01:16:42.632Z,-13.19
2016-03-04T01:16:57.460Z,-13.16
2016-03-04T01:17:12.194Z,-13.19
2016-03-04T01:17:27.400Z,-13.24
2016-03-04T01:17:44.416Z,-13.3
2016-03-04T01:17:59.197Z,-13.32
2016-03-04T01:18:13.838Z,-13.25
2016-03-04T01:18:28.387Z,-13.25
2016-03-04T01:18:43.246Z,-13.33
2016-03-04T01:18:57.949Z,-13.3
2016-03-04T01:19:12.965Z,-13.25
2016-03-04T01:19:27.842Z,-13.33
2016-03-04T01:19:42.514Z,-13.25
2016-03-04T01:19:57.342Z,-13.27
2016-03-04T01:20:12.279Z,-13.27
2016-03-04T01:20:27.549Z,-13.3
2016-03-04T01:20:42.971Z,-13.24
2016-03-04T01:20:57.596Z,-13.22
2016-03-04T01:21:12.830Z,-13.24
2016-03-04T01:21:27.379Z,-13.25
2016-03-04T01:21:42.176Z,-13.25
2016-03-04T01:21:56.770Z,-13.27
2016-03-04T01:22:11.801Z,-13.3
2016-03-04T01:22:26.617Z,-13.24
2016-03-04T01:22:41.320Z,-13.37
2016-03-04T01:22:56.242Z,-13.32
2016-03-04T01:23:11.007Z,-13.3
2016-03-04T01:23:25.900Z,-13.36
2016-03-04T01:23:40.290Z,-13.43
2016-03-04T01:23:55.150Z,-13.43
2016-03-04T01:24:10.415Z,-13.3
2016-03-04T01:24:25.293Z,-13.29
2016-03-04T01:24:40.059Z,-13.33
2016-03-04T01:24:55.090Z,-13.36
2016-03-04T01:25:09.465Z,-13.3
2016-03-04T01:25:24.328Z,-13.35
2016-03-04T01:25:39.390Z,-13.42
2016-03-04T01:25:54.125Z,-13.42
2016-03-04T01:26:12.296Z,-13.4
2016-03-04T01:26:27.096Z,-13.43
2016-03-04T01:26:41.878Z,-13.35
2016-03-04T01:26:56.534Z,-13.43
2016-03-04T01:27:11.268Z,-13.46
2016-03-04T01:27:29.098Z,-13.4
2016-03-04T01:27:44.192Z,-13.4
2016-03-04T01:27:59.114Z,-13.47
2016-03-04T01:28:13.614Z,-13.47
2016-03-04T01:28:27.601Z,-13.3
2016-03-04T01:28:42.054Z,-13.43
2016-03-04T01:28:56.804Z,-13.47
2016-03-04T01:29:11.914Z,-13.46
2016-03-04T01:29:26.792Z,-13.42
2016-03-04T01:29:41.495Z,-13.46
2016-03-04T01:29:56.292Z,-13.47
2016-03-04T01:30:11.026Z,-13.4
2016-03-04T01:30:26.091Z,-13.46
2016-03-04T01:30:39.747Z,-13.4
2016-03-04T01:30:54.638Z,-13.46
2016-03-04T01:31:09.778Z,-13.48
2016-03-04T01:31:24.687Z,-13.42
2016-03-04T01:31:39.516Z,-13.43
2016-03-04T01:31:57.156Z,-13.46
2016-03-04T01:32:12.172Z,-13.42
2016-03-04T01:32:27.159Z,-13.42
2016-03-04T01:32:42.253Z,-13.46
2016-03-04T01:32:57.690Z,-13.5
2016-03-04T01:33:15.409Z,-13.47
2016-03-04T01:33:30.303Z,-13.47
2016-03-04T01:33:44.865Z,-13.46
2016-03-04T01:33:59.522Z,-13.47
2016-03-04T01:34:14.022Z,-13.48
2016-03-04T01:34:29.008Z,-13.42
2016-03-04T01:34:43.883Z,-13.48
2016-03-04T01:34:59.070Z,-13.48
2016-03-04T01:35:13.805Z,-13.47
2016-03-04T01:35:28.605Z,-13.51
2016-03-04T01:35:43.308Z,-13.43
2016-03-04T01:35:58.089Z,-13.5
2016-03-04T01:36:13.120Z,-13.53
2016-03-04T01:36:27.544Z,-13.48
2016-03-04T01:36:42.200Z,-13.51
2016-03-04T01:36:57.091Z,-13.47
2016-03-04T01:37:11.763Z,-13.51
2016-03-04T01:37:26.766Z,-13.48
2016-03-04T01:37:41.375Z,-13.53
2016-03-04T01:37:56.235Z,-13.48
2016-03-04T01:38:11.110Z,-13.5
2016-03-04T01:38:26.159Z,-13.48
2016-03-04T01:38:40.768Z,-13.48
2016-03-04T01:38:55.221Z,-13.5
2016-03-04T01:39:09.987Z,-13.57
2016-03-04T01:39:24.553Z,-13.54
2016-03-04T01:39:41.506Z,-13.63
2016-03-04T01:39:55.913Z,-13.56
2016-03-04T01:40:10.834Z,-13.6
2016-03-04T01:40:26.055Z,-13.53
2016-03-04T01:40:40.540Z,-13.57
2016-03-04T01:40:55.352Z,-13.61
2016-03-04T01:41:10.290Z,-13.56
2016-03-04T01:41:25.277Z,-13.56
2016-03-04T01:41:40.136Z,-13.54
2016-03-04T01:41:54.589Z,-13.58
2016-03-04T01:42:09.402Z,-13.61
2016-03-04T01:42:24.091Z,-13.63
2016-03-04T01:42:39.013Z,-13.56
2016-03-04T01:43:07.560Z,-13.56
2016-03-04T01:43:22.298Z,-13.63
2016-03-04T01:43:36.813Z,-13.56
2016-03-04T01:43:51.516Z,-13.54
2016-03-04T01:44:06.735Z,-13.56
2016-03-04T01:44:21.488Z,-13.56
2016-03-04T01:44:50.176Z,-13.6
2016-03-04T01:45:04.707Z,-13.58
2016-03-04T01:45:19.754Z,-13.56
2016-03-04T01:45:34.397Z,-13.58
2016-03-04T01:45:48.991Z,-13.57
2016-03-04T01:46:03.429Z,-13.6
2016-03-04T01:46:17.960Z,-13.7
2016-03-04T01:46:32.682Z,-13.63
2016-03-04T01:46:47.400Z,-13.65
2016-03-04T01:47:02.510Z,-13.65
2016-03-04T01:47:17.494Z,-13.58
2016-03-04T01:47:32.324Z,-13.61
2016-03-04T01:47:47.871Z,-13.6
2016-03-04T01:48:02.949Z,-13.63
2016-03-04T01:48:16.996Z,-13.6
2016-03-04T01:48:32.124Z,-13.61
2016-03-04T01:48:46.874Z,-13.65
2016-03-04T01:49:02.233Z,-13.65
2016-03-04T01:49:17.312Z,-13.61
2016-03-04T01:49:46.580Z,-13.61
2016-03-04T01:50:01.330Z,-13.61
2016-03-04T01:50:16.283Z,-13.61
2016-03-04T01:50:30.223Z,-13.67
2016-03-04T01:50:44.988Z,-13.6
2016-03-04T01:50:59.817Z,-13.6
2016-03-04T01:51:28.787Z,-13.65
2016-03-04T01:51:43.647Z,-13.6
2016-03-04T01:51:58.397Z,-13.6
2016-03-04T01:52:13.209Z,-13.65
2016-03-04T01:52:27.979Z,-13.65
2016-03-04T01:52:43.213Z,-13.65
2016-03-04T01:52:57.713Z,-13.67
2016-03-04T01:53:11.744Z,-13.58
2016-03-04T01:53:26.591Z,-13.63
2016-03-04T01:53:41.279Z,-13.72
2016-03-04T01:53:56.201Z,-13.65
2016-03-04T01:54:11.013Z,-13.7
2016-03-04T01:54:25.359Z,-13.76
2016-03-04T01:54:40.234Z,-13.76
2016-03-04T01:54:55.281Z,-13.68
2016-03-04T01:55:10.859Z,-13.73
2016-03-04T01:55:25.845Z,-13.7
2016-03-04T01:55:40.970Z,-13.73
2016-03-04T01:55:58.892Z,-13.67
2016-03-04T01:56:13.470Z,-13.67
2016-03-04T01:56:28.645Z,-13.76
2016-03-04T01:56:43.489Z,-13.72
2016-03-04T01:56:58.598Z,-13.75
2016-03-04T01:57:13.333Z,-13.79
2016-03-04T01:57:28.148Z,-13.73
2016-03-04T01:57:43.148Z,-13.8
2016-03-04T01:57:58.179Z,-13.75
2016-03-04T01:58:13.086Z,-13.84
2016-03-04T01:58:27.931Z,-13.79
2016-03-04T01:58:43.213Z,-13.8
2016-03-04T01:58:58.259Z,-13.75
2016-03-04T01:59:13.119Z,-13.8
2016-03-04T01:59:27.919Z,-13.78
2016-03-04T01:59:42.622Z,-13.84
2016-03-04T01:59:57.528Z,-13.84
2016-03-04T02:00:12.012Z,-13.79
2016-03-04T02:00:26.750Z,-13.8
2016-03-04T02:00:41.312Z,-13.79
2016-03-04T02:00:56.062Z,-13.76
2016-03-04T02:01:10.703Z,-13.84
2016-03-04T02:01:25.862Z,-13.82
2016-03-04T02:01:39.768Z,-13.84
2016-03-04T02:01:55.050Z,-13.72
2016-03-04T02:02:09.597Z,-13.84
2016-03-04T02:02:24.911Z,-13.78
2016-03-04T02:02:40.052Z,-13.78
2016-03-04T02:02:54.817Z,-13.84
2016-03-04T02:03:09.067Z,-13.9
2016-03-04T02:03:24.071Z,-13.87
2016-03-04T02:03:38.931Z,-13.82
2016-03-04T02:03:53.821Z,-13.78
2016-03-04T02:04:08.884Z,-13.82
2016-03-04T02:04:24.073Z,-13.91
2016-03-04T02:04:38.823Z,-13.86
2016-03-04T02:04:52.886Z,-13.8
2016-03-04T02:05:08.042Z,-13.8
2016-03-04T02:05:22.826Z,-13.82
2016-03-04T02:05:37.607Z,-13.79
2016-03-04T02:05:51.935Z,-13.79
2016-03-04T02:06:06.497Z,-13.75
2016-03-04T02:06:20.763Z,-13.91
2016-03-04T02:06:35.578Z,-13.79
2016-03-04T02:06:50.594Z,-13.82
2016-03-04T02:07:04.906Z,-13.89
2016-03-04T02:07:19.922Z,-13.93
2016-03-04T02:07:35.174Z,-13.87
2016-03-04T02:07:49.940Z,-13.99
2016-03-04T02:08:04.143Z,-13.94
2016-03-04T02:08:19.065Z,-13.89
2016-03-04T02:08:33.818Z,-13.82
2016-03-04T02:08:48.458Z,-13.91
2016-03-04T02:09:03.443Z,-13.86
2016-03-04T02:09:17.786Z,-13.82
2016-03-04T02:10:01.571Z,-13.96
2016-03-04T02:10:19.633Z,-13.97
2016-03-04T02:10:34.385Z,-13.9
2016-03-04T02:10:48.979Z,-13.86
2016-03-04T02:11:03.916Z,-13.82
2016-03-04T02:11:18.401Z,-13.89
2016-03-04T02:11:33.373Z,-13.87
2016-03-04T02:11:47.982Z,-13.89
2016-03-04T02:12:02.248Z,-13.82
2016-03-04T02:12:17.107Z,-13.94
2016-03-04T02:12:31.938Z,-13.91
2016-03-04T02:12:47.219Z,-13.91
2016-03-04T02:13:02.079Z,-13.9
2016-03-04T02:13:16.938Z,-13.93
2016-03-04T02:13:32.049Z,-13.97
2016-03-04T02:13:46.862Z,-13.93
2016-03-04T02:14:02.221Z,-13.97
2016-03-04T02:14:16.206Z,-13.94
2016-03-04T02:14:31.381Z,-14
2016-03-04T02:15:15.599Z,-14.01
2016-03-04T02:15:30.259Z,-13.97
2016-03-04T02:15:44.868Z,-14
2016-03-04T02:15:59.915Z,-13.9
2016-03-04T02:16:14.930Z,-13.99
2016-03-04T02:16:29.027Z,-13.91
2016-03-04T02:16:43.777Z,-13.87
2016-03-04T02:16:58.590Z,-13.93
2016-03-04T02:17:13.480Z,-14
2016-03-04T02:17:31.482Z,-13.94
2016-03-04T02:17:46.560Z,-13.94
2016-03-04T02:18:01.451Z,-13.94
2016-03-04T02:18:16.342Z,-13.97
2016-03-04T02:18:31.298Z,-14.01
2016-03-04T02:18:46.142Z,-13.94
2016-03-04T02:19:01.235Z,-13.99
2016-03-04T02:19:16.423Z,-14.01
2016-03-04T02:19:31.395Z,-13.93
2016-03-04T02:19:46.473Z,-14
2016-03-04T02:20:01.379Z,-13.93
2016-03-04T02:20:16.473Z,-14
2016-03-04T02:20:31.365Z,-13.93
2016-03-04T02:20:46.100Z,-13.97
2016-03-04T02:21:00.959Z,-13.86
2016-03-04T02:21:15.350Z,-13.86
2016-03-04T02:21:30.228Z,-13.94
2016-03-04T02:21:44.868Z,-13.96
2016-03-04T02:21:59.665Z,-13.94
2016-03-04T02:22:14.696Z,-14
2016-03-04T02:22:29.448Z,-13.82
2016-03-04T02:22:44.027Z,-14.07
2016-03-04T02:22:58.886Z,-13.97
2016-03-04T02:23:13.511Z,-13.97
2016-03-04T02:23:28.014Z,-13.9
2016-03-04T02:23:41.936Z,-13.96
2016-03-04T02:23:56.811Z,-13.91
2016-03-04T02:24:10.905Z,-13.94
2016-03-04T02:24:25.626Z,-13.94
2016-03-04T02:24:40.814Z,-13.99
2016-03-04T02:24:55.939Z,-13.97
2016-03-04T02:25:11.189Z,-13.94
2016-03-04T02:25:26.114Z,-13.99
2016-03-04T02:25:41.161Z,-13.94
2016-03-04T02:25:56.129Z,-13.97
2016-03-04T02:26:10.786Z,-13.93
2016-03-04T02:26:25.631Z,-14.01
2016-03-04T02:26:40.366Z,-13.96
2016-03-04T02:27:09.167Z,-14
2016-03-04T02:27:23.795Z,-14.05
2016-03-04T02:27:38.639Z,-13.99
2016-03-04T02:27:53.624Z,-13.99
2016-03-04T02:28:08.592Z,-13.99
2016-03-04T02:28:23.376Z,-13.99
2016-03-04T02:28:38.454Z,-14
2016-03-04T02:28:53.344Z,-13.94
2016-03-04T02:29:07.407Z,-13.97
2016-03-04T02:29:22.376Z,-13.91
2016-03-04T02:29:37.238Z,-13.99
2016-03-04T02:29:52.269Z,-13.94
2016-03-04T02:30:07.410Z,-13.93
2016-03-04T02:30:22.191Z,-13.93
2016-03-04T02:30:36.913Z,-13.94
2016-03-04T02:30:51.882Z,-13.99
2016-03-04T02:31:06.569Z,-13.93
2016-03-04T02:31:21.569Z,-14
2016-03-04T02:31:36.416Z,-13.94
2016-03-04T02:31:51.431Z,-13.94
2016-03-04T02:32:06.213Z,-14.01
2016-03-04T02:32:20.947Z,-14.04
2016-03-04T02:32:49.855Z,-14.05
2016-03-04T02:33:04.965Z,-14.04
2016-03-04T02:33:20.012Z,-14
2016-03-04T02:33:34.765Z,-14.1
2016-03-04T02:33:49.702Z,-14.05
2016-03-04T02:34:04.843Z,-14.04
2016-03-04T02:34:19.671Z,-13.99
2016-03-04T02:34:34.533Z,-14
2016-03-04T02:34:50.158Z,-13.99
2016-03-04T02:35:04.424Z,-14.08
2016-03-04T02:35:19.580Z,-14.07
2016-03-04T02:35:34.271Z,-14.05
2016-03-04T02:36:03.067Z,-14.1
2016-03-04T02:36:18.255Z,-14.07
2016-03-04T02:36:33.210Z,-14.07
2016-03-04T02:36:47.616Z,-14.08
2016-03-04T02:37:02.273Z,-14.08
2016-03-04T02:37:17.460Z,-14.07
2016-03-04T02:37:32.229Z,-14.08
2016-03-04T02:37:47.276Z,-14.07
2016-03-04T02:38:02.322Z,-14.14
2016-03-04T02:38:17.307Z,-14.08
2016-03-04T02:38:32.512Z,-14.08
2016-03-04T02:38:47.637Z,-14.05
2016-03-04T02:39:01.653Z,-14.08
2016-03-04T02:39:17.184Z,-14.12
2016-03-04T02:39:32.156Z,-14.08
2016-03-04T02:39:50.265Z,-14.08
2016-03-04T02:40:05.062Z,-14.07
2016-03-04T02:40:20.359Z,-14.08
2016-03-04T02:40:35.299Z,-14.12
2016-03-04T02:40:50.190Z,-14.12
2016-03-04T02:41:03.940Z,-14.04
2016-03-04T02:41:18.940Z,-14.12
2016-03-04T02:41:33.489Z,-14.12
2016-03-04T02:41:48.129Z,-14.1
2016-03-04T02:42:03.067Z,-14.12
2016-03-04T02:42:17.989Z,-14.12
2016-03-04T02:42:32.804Z,-14.2
2016-03-04T02:42:47.507Z,-14.05
2016-03-04T02:43:02.023Z,-14.15
2016-03-04T02:43:20.054Z,-14.17
2016-03-04T02:43:35.042Z,-14.11
2016-03-04T02:43:50.042Z,-14.08
2016-03-04T02:44:04.573Z,-14.2
2016-03-04T02:44:22.307Z,-14.2
2016-03-04T02:44:36.981Z,-14.1
2016-03-04T02:44:51.715Z,-14.17
2016-03-04T02:45:06.512Z,-14.11
2016-03-04T02:45:21.559Z,-14.17
2016-03-04T02:45:36.453Z,-14.11
2016-03-04T02:45:51.047Z,-14.1
2016-03-04T02:46:05.734Z,-14.08
2016-03-04T02:46:20.593Z,-14.15
2016-03-04T02:46:35.175Z,-14.18
2016-03-04T02:46:50.003Z,-14.1
2016-03-04T02:47:04.518Z,-14.08
2016-03-04T02:47:19.159Z,-14.2
2016-03-04T02:48:16.677Z,-14.22
2016-03-04T02:48:31.695Z,-14.11
2016-03-04T02:48:46.601Z,-14.08
2016-03-04T02:49:01.461Z,-14.14
2016-03-04T02:49:16.351Z,-14.11
2016-03-04T02:49:31.214Z,-14.14
2016-03-04T02:49:45.995Z,-14.11
2016-03-04T02:50:01.214Z,-14.15
2016-03-04T02:50:16.370Z,-13.99
2016-03-04T02:50:30.342Z,-14.14
2016-03-04T02:50:45.420Z,-14.04
2016-03-04T02:51:00.248Z,-14.07
2016-03-04T02:51:15.295Z,-14.08
2016-03-04T02:51:30.016Z,-14.07
2016-03-04T02:51:44.469Z,-14.1
2016-03-04T02:51:59.266Z,-14.04
2016-03-04T02:52:14.203Z,-14.08
2016-03-04T02:52:29.128Z,-14.07
2016-03-04T02:52:43.612Z,-14.1
2016-03-04T02:52:58.300Z,-14.12
2016-03-04T02:53:13.237Z,-14.12
2016-03-04T02:53:28.068Z,-14.08
2016-03-04T02:53:42.646Z,-14.04
2016-03-04T02:53:57.802Z,-14.11
2016-03-04T02:54:12.911Z,-14.08
2016-03-04T02:54:28.367Z,-14.11
2016-03-04T02:54:42.227Z,-14.12
2016-03-04T02:54:57.133Z,-14.11
2016-03-04T02:55:15.430Z,-14.08
2016-03-04T02:55:30.261Z,-14.08
2016-03-04T02:55:45.089Z,-14.14
2016-03-04T02:55:59.777Z,-14.08
2016-03-04T02:56:14.667Z,-14.14
2016-03-04T02:56:28.561Z,-14.15
2016-03-04T02:56:42.483Z,-14.04
2016-03-04T02:56:57.327Z,-14.1
2016-03-04T02:57:12.342Z,-14.11
2016-03-04T02:57:30.283Z,-14.07
2016-03-04T02:57:45.001Z,-14.07
2016-03-04T02:57:59.767Z,-14.08
2016-03-04T02:58:14.423Z,-14.12
2016-03-04T02:58:28.894Z,-14.05
2016-03-04T02:58:43.394Z,-14.05
2016-03-04T02:58:58.285Z,-14.1
2016-03-04T02:59:13.535Z,-14.08
2016-03-04T02:59:28.319Z,-14.08
2016-03-04T02:59:42.725Z,-14.08
2016-03-04T02:59:57.585Z,-14.11
2016-03-04T03:00:12.475Z,-14.07
2016-03-04T03:00:27.244Z,-14.08
2016-03-04T03:00:42.072Z,-14.08
2016-03-04T03:00:57.134Z,-14.14
2016-03-04T03:01:12.275Z,-14.05
2016-03-04T03:01:27.341Z,-14.12
2016-03-04T03:01:42.200Z,-14.1
2016-03-04T03:01:56.997Z,-14.08
2016-03-04T03:02:11.716Z,-14.12
2016-03-04T03:02:26.796Z,-14.1
2016-03-04T03:02:41.858Z,-14
2016-03-04T03:02:56.858Z,-14.05
2016-03-04T03:03:10.655Z,-14.12
2016-03-04T03:03:25.267Z,-14.08
2016-03-04T03:03:40.033Z,-14.11
2016-03-04T03:03:54.877Z,-14.08
2016-03-04T03:04:09.846Z,-14.08
2016-03-04T03:04:28.004Z,-14.08
2016-03-04T03:04:56.769Z,-14.14
2016-03-04T03:05:11.738Z,-14.11
2016-03-04T03:05:26.038Z,-14.1
2016-03-04T03:05:40.741Z,-14.14
2016-03-04T03:05:55.804Z,-14.1
2016-03-04T03:06:09.804Z,-14.11
2016-03-04T03:06:25.101Z,-14.11
2016-03-04T03:06:39.978Z,-14.1
2016-03-04T03:06:53.946Z,-14.11
2016-03-04T03:07:09.024Z,-14.08
2016-03-04T03:07:24.009Z,-14.08
2016-03-04T03:07:52.840Z,-14.08
2016-03-04T03:08:07.465Z,-14.04
2016-03-04T03:08:22.309Z,-14.12
2016-03-04T03:08:37.140Z,-14.07
2016-03-04T03:08:51.859Z,-14.08
2016-03-04T03:09:06.827Z,-14.08
2016-03-04T03:09:21.874Z,-14.1
2016-03-04T03:09:36.455Z,-14.08
2016-03-04T03:09:51.283Z,-14.08
2016-03-04T03:10:06.408Z,-14.04
2016-03-04T03:10:21.221Z,-14
2016-03-04T03:10:36.193Z,-14.12